createdAt,value
2022-08-16T00:00:22.141Z,71.29
2022-08-16T00:00:44.072Z,72.78
2022-08-16T00:01:19.326Z,71.39
2022-08-16T00:01:54.655Z,71.19
2022-08-16T00:02:29.751Z,71.39
2022-08-16T00:03:04.844Z,71.59
2022-08-16T00:03:40.812Z,71.59
2022-08-16T00:04:15.087Z,71.99
2022-08-16T00:04:50.969Z,72.09
2022-08-16T00:05:25.732Z,72.19
2022-08-16T00:06:01.238Z,71.79
2022-08-16T00:06:36.709Z,71.69
2022-08-16T00:07:11.955Z,72.19
2022-08-16T00:07:47.188Z,72.78
2022-08-16T00:08:35.975Z,71.79
2022-08-16T00:08:58.013Z,71.89
2022-08-16T00:09:33.546Z,71.99
2022-08-16T00:10:08.767Z,72.09
2022-08-16T00:10:44.083Z,72.69
2022-08-16T00:11:19.402Z,72.59
2022-08-16T00:11:55.516Z,72.78
2022-08-16T00:12:30.213Z,72.78
2022-08-16T00:13:05.735Z,72.29
2022-08-16T00:13:41.768Z,73.79
2022-08-16T00:14:15.839Z,72.59
2022-08-16T00:14:51.049Z,72.59
2022-08-16T00:15:51.887Z,72.09
2022-08-16T00:16:02.078Z,73.28
2022-08-16T00:17:06.713Z,73.09
2022-08-16T00:17:19.105Z,71.99
2022-08-16T00:17:56.112Z,71.72
2022-08-16T00:18:29.708Z,71.49
2022-08-16T00:18:58.537Z,72.49
2022-08-16T00:19:41.746Z,72.29
2022-08-16T00:20:12.473Z,72.39
2022-08-16T00:20:44.486Z,72.29
2022-08-16T00:21:20.036Z,72.52
2022-08-16T00:22:01.551Z,72.59
2022-08-16T00:22:31.002Z,73.12
2022-08-16T00:23:06.346Z,73.02
2022-08-16T00:23:46.471Z,73.12
2022-08-16T00:24:32.225Z,73.62
2022-08-16T00:24:52.215Z,73.42
2022-08-16T00:26:33.812Z,73.72
2022-08-16T00:26:36.008Z,73.99
2022-08-16T00:26:45.153Z,73.52
2022-08-16T00:27:13.754Z,73.32
2022-08-16T00:27:49.002Z,73.62
2022-08-16T00:28:24.052Z,74.02
2022-08-16T00:28:59.470Z,73.69
2022-08-16T00:29:34.903Z,73.42
2022-08-16T00:30:19.613Z,73.62
2022-08-16T00:30:45.828Z,73.72
2022-08-16T00:31:24.194Z,73.52
2022-08-16T00:32:00.764Z,73.32
2022-08-16T00:32:32.918Z,73.32
2022-08-16T00:33:07.067Z,72.92
2022-08-16T00:33:42.383Z,73.42
2022-08-16T00:34:18.381Z,73.82
2022-08-16T00:34:53.809Z,73.62
2022-08-16T00:35:28.050Z,73.62
2022-08-16T00:36:02.990Z,73.62
2022-08-16T00:36:38.387Z,74.02
2022-08-16T00:37:17.230Z,73.32
2022-08-16T00:37:56.998Z,73.92
2022-08-16T00:38:40.638Z,73.52
2022-08-16T00:38:59.215Z,73.82
2022-08-16T00:39:34.460Z,73.62
2022-08-16T00:40:34.027Z,73.32
2022-08-16T00:40:50.717Z,73.12
2022-08-16T00:41:20.129Z,73.42
2022-08-16T00:41:55.448Z,73.52
2022-08-16T00:42:31.666Z,73.82
2022-08-16T00:43:06.196Z,73.72
2022-08-16T00:43:43.158Z,73.82
2022-08-16T00:44:16.845Z,73.52
2022-08-16T00:44:52.134Z,73.32
2022-08-16T00:45:27.371Z,73.42
2022-08-16T00:46:22.218Z,73.12
2022-08-16T00:46:37.581Z,73.42
2022-08-16T00:47:12.572Z,73.82
2022-08-16T00:47:49.407Z,73.02
2022-08-16T00:48:31.270Z,73.12
2022-08-16T00:48:58.133Z,74.82
2022-08-16T00:49:39.567Z,74.02
2022-08-16T00:50:11.820Z,73.32
2022-08-16T00:50:44.142Z,73.72
2022-08-16T00:51:19.537Z,73.92
2022-08-16T00:51:55.470Z,72.62
2022-08-16T00:52:30.891Z,72.72
2022-08-16T00:53:05.289Z,73.22
2022-08-16T00:53:40.600Z,74.12
2022-08-16T00:54:15.820Z,73.52
2022-08-16T00:54:51.228Z,73.22
2022-08-16T00:55:26.684Z,73.12
2022-08-16T00:56:05.226Z,74.05
2022-08-16T00:56:58.241Z,74.62
2022-08-16T00:57:12.873Z,73.82
2022-08-16T00:57:58.866Z,73.02
2022-08-16T00:58:34.618Z,73.56
2022-08-16T00:58:58.507Z,73.86
2022-08-16T00:59:34.401Z,72.92
2022-08-16T01:00:09.282Z,72.32
2022-08-16T01:00:44.830Z,73.56
2022-08-16T01:01:20.174Z,73.72
2022-08-16T01:01:55.356Z,72.36
2022-08-16T01:02:33.175Z,73.46
2022-08-16T01:03:06.297Z,74.05
2022-08-16T01:03:41.920Z,74.36
2022-08-16T01:04:25.800Z,73.82
2022-08-16T01:05:11.262Z,74.12
2022-08-16T01:05:27.616Z,74.72
2022-08-16T01:06:39.716Z,74.72
2022-08-16T01:06:39.898Z,73.62
2022-08-16T01:07:13.229Z,73.92
2022-08-16T01:07:51.135Z,72.52
2022-08-16T01:08:36.001Z,73.36
2022-08-16T01:09:00.089Z,73.12
2022-08-16T01:09:34.365Z,73.25
2022-08-16T01:10:16.805Z,73.82
2022-08-16T01:10:44.993Z,72.22
2022-08-16T01:11:20.293Z,72.72
2022-08-16T01:11:56.756Z,71.86
2022-08-16T01:12:30.252Z,73.92
2022-08-16T01:13:05.808Z,73.06
2022-08-16T01:13:40.715Z,73.46
2022-08-16T01:14:16.045Z,74.02
2022-08-16T01:14:51.380Z,73.72
2022-08-16T01:15:26.625Z,73.46
2022-08-16T01:16:02.903Z,73.12
2022-08-16T01:16:37.382Z,73.16
2022-08-16T01:17:12.854Z,73.96
2022-08-16T01:17:48.156Z,73.56
2022-08-16T01:18:40.638Z,73.66
2022-08-16T01:18:58.632Z,73.82
2022-08-16T01:19:33.832Z,72.66
2022-08-16T01:20:24.669Z,73.16
2022-08-16T01:20:44.537Z,73.42
2022-08-16T01:21:22.135Z,73.96
2022-08-16T01:21:54.902Z,73.42
2022-08-16T01:22:47.521Z,72.76
2022-08-16T01:23:08.873Z,72.76
2022-08-16T01:23:58.052Z,72.22
2022-08-16T01:24:44.534Z,72.45
2022-08-16T01:24:55.349Z,72.26
2022-08-16T01:25:34.043Z,72.56
2022-08-16T01:26:34.768Z,71.96
2022-08-16T01:26:37.301Z,72.66
2022-08-16T01:27:15.184Z,72.26
2022-08-16T01:27:48.048Z,72.36
2022-08-16T01:28:23.199Z,72.56
2022-08-16T01:28:58.526Z,72.36
2022-08-16T01:29:41.696Z,72.45
2022-08-16T01:30:20.693Z,72.96
2022-08-16T01:30:49.680Z,73.96
2022-08-16T01:31:19.919Z,73.96
2022-08-16T01:31:55.262Z,72.26
2022-08-16T01:32:33.855Z,73.25
2022-08-16T01:33:14.791Z,72.26
2022-08-16T01:33:44.627Z,72.26
2022-08-16T01:34:25.111Z,73.25
2022-08-16T01:34:53.700Z,73.36
2022-08-16T01:35:27.020Z,73.86
2022-08-16T01:36:02.347Z,72.86
2022-08-16T01:36:37.473Z,72.56
2022-08-16T01:37:13.093Z,73.86
2022-08-16T01:37:53.991Z,73.75
2022-08-16T01:38:25.702Z,73.06
2022-08-16T01:38:59.307Z,73.46
2022-08-16T01:39:35.444Z,72.86
2022-08-16T01:40:09.943Z,72.76
2022-08-16T01:40:45.113Z,73.46
2022-08-16T01:41:21.106Z,72.49
2022-08-16T01:41:55.651Z,72.76
2022-08-16T01:42:30.968Z,72.26
2022-08-16T01:43:06.116Z,72.06
2022-08-16T01:43:41.441Z,73.09
2022-08-16T01:44:18.410Z,73.59
2022-08-16T01:44:52.224Z,73.39
2022-08-16T01:45:39.503Z,72.96
2022-08-16T01:46:38.385Z,73.29
2022-08-16T01:46:39.375Z,72.86
2022-08-16T01:47:12.474Z,72.56
2022-08-16T01:47:49.470Z,72.29
2022-08-16T01:48:23.116Z,72.66
2022-08-16T01:48:58.344Z,72.49
2022-08-16T01:49:42.970Z,72.26
2022-08-16T01:50:42.034Z,72.59
2022-08-16T01:51:08.789Z,73.36
2022-08-16T01:51:19.199Z,72.86
2022-08-16T01:51:54.324Z,72.69
2022-08-16T01:52:30.551Z,72.45
2022-08-16T01:53:04.684Z,72.79
2022-08-16T01:53:41.250Z,72.56
2022-08-16T01:54:15.742Z,72.29
2022-08-16T01:54:51.084Z,72.86
2022-08-16T01:55:26.397Z,72.59
2022-08-16T01:56:01.826Z,72.79
2022-08-16T01:56:37.588Z,73.79
2022-08-16T01:57:13.006Z,73.39
2022-08-16T01:57:53.231Z,73.29
2022-08-16T01:58:23.888Z,73.39
2022-08-16T01:58:59.370Z,73.49
2022-08-16T01:59:34.526Z,73.49
2022-08-16T02:00:10.598Z,73.99
2022-08-16T02:00:45.193Z,73.99
2022-08-16T02:01:20.495Z,73.89
2022-08-16T02:01:59.724Z,73.59
2022-08-16T02:02:31.003Z,73.69
2022-08-16T02:03:06.444Z,73.59
2022-08-16T02:03:41.793Z,73.49
2022-08-16T02:04:48.178Z,73.39
2022-08-16T02:04:54.754Z,73.59
2022-08-16T02:05:30.758Z,74.22
2022-08-16T02:06:02.903Z,73.83
2022-08-16T02:06:38.751Z,73.89
2022-08-16T02:07:13.597Z,73.79
2022-08-16T02:07:48.810Z,73.79
2022-08-16T02:08:33.605Z,74.29
2022-08-16T02:08:59.360Z,74.29
2022-08-16T02:09:34.593Z,74.63
2022-08-16T02:10:09.944Z,74.93
2022-08-16T02:10:45.174Z,74.49
2022-08-16T02:11:20.616Z,74.73
2022-08-16T02:11:55.976Z,74.53
2022-08-16T02:12:45.868Z,74.19
2022-08-16T02:13:07.268Z,74.49
2022-08-16T02:13:42.151Z,74.33
2022-08-16T02:14:18.489Z,74.63
2022-08-16T02:14:52.843Z,74.73
2022-08-16T02:15:28.159Z,74.83
2022-08-16T02:16:03.285Z,74.83
2022-08-16T02:16:38.540Z,75.13
2022-08-16T02:17:14.164Z,75.63
2022-08-16T02:17:49.635Z,75.23
2022-08-16T02:18:24.876Z,74.93
2022-08-16T02:19:00.292Z,74.93
2022-08-16T02:19:58.581Z,75.13
2022-08-16T02:20:11.515Z,75.33
2022-08-16T02:20:46.201Z,75.16
2022-08-16T02:21:31.623Z,75.37
2022-08-16T02:22:08.297Z,75.46
2022-08-16T02:22:34.928Z,75.37
2022-08-16T02:23:07.616Z,75.87
2022-08-16T02:23:43.313Z,76.06
2022-08-16T02:24:31.417Z,76.06
2022-08-16T02:24:53.999Z,75.87
2022-08-16T02:25:52.154Z,76.03
2022-08-16T02:26:04.890Z,75.96
2022-08-16T02:26:39.953Z,75.76
2022-08-16T02:27:15.202Z,76.26
2022-08-16T02:27:51.379Z,75.67
2022-08-16T02:28:25.937Z,75.73
2022-08-16T02:29:00.980Z,75.87
2022-08-16T02:29:36.229Z,75.96
2022-08-16T02:30:11.267Z,76.26
2022-08-16T02:30:50.654Z,75.96
2022-08-16T02:31:21.835Z,75.87
2022-08-16T02:32:03.212Z,76.17
2022-08-16T02:33:00.992Z,75.87
2022-08-16T02:33:08.075Z,75.87
2022-08-16T02:33:44.615Z,75.96
2022-08-16T02:34:18.273Z,76.06
2022-08-16T02:34:56.485Z,76.46
2022-08-16T02:35:28.762Z,75.96
2022-08-16T02:36:03.993Z,76.06
2022-08-16T02:36:47.963Z,76.17
2022-08-16T02:37:14.558Z,76.37
2022-08-16T02:37:52.397Z,76.40
2022-08-16T02:38:25.295Z,76.46
2022-08-16T02:39:00.540Z,76.20
2022-08-16T02:39:35.948Z,76.26
2022-08-16T02:40:11.566Z,76.17
2022-08-16T02:40:47.099Z,76.67
2022-08-16T02:41:22.443Z,76.06
2022-08-16T02:41:57.700Z,76.80
2022-08-16T02:42:33.023Z,76.60
2022-08-16T02:43:08.298Z,77.00
2022-08-16T02:43:44.023Z,76.67
2022-08-16T02:44:19.645Z,77.06
2022-08-16T02:44:54.893Z,76.56
2022-08-16T02:45:30.330Z,77.20
2022-08-16T02:46:07.513Z,77.20
2022-08-16T02:46:41.283Z,77.40
2022-08-16T02:47:25.502Z,77.36
2022-08-16T02:48:00.116Z,76.76
2022-08-16T02:48:29.133Z,77.40
2022-08-16T02:49:02.637Z,77.40
2022-08-16T02:50:52.892Z,77.56
2022-08-16T02:50:53.659Z,77.47
2022-08-16T02:50:54.531Z,76.67
2022-08-16T02:51:24.375Z,77.17
2022-08-16T02:51:59.734Z,76.26
2022-08-16T02:52:35.077Z,76.37
2022-08-16T02:53:10.246Z,76.37
2022-08-16T02:53:45.580Z,76.97
2022-08-16T02:54:20.907Z,76.60
2022-08-16T02:54:56.242Z,76.17
2022-08-16T02:55:40.709Z,76.40
2022-08-16T02:56:09.836Z,76.37
2022-08-16T02:56:41.982Z,76.40
2022-08-16T02:57:17.420Z,77.10
2022-08-16T02:57:54.013Z,76.80
2022-08-16T02:58:27.853Z,76.60
2022-08-16T02:59:03.293Z,76.70
2022-08-16T02:59:39.684Z,76.46
2022-08-16T03:00:34.061Z,76.20
2022-08-16T03:00:50.186Z,76.26
2022-08-16T03:01:33.388Z,76.46
2022-08-16T03:01:59.545Z,76.60
2022-08-16T03:02:34.610Z,76.30
2022-08-16T03:03:10.605Z,76.46
2022-08-16T03:04:28.653Z,76.90
2022-08-16T03:04:39.224Z,76.70
2022-08-16T03:04:55.138Z,76.40
2022-08-16T03:05:30.995Z,76.60
2022-08-16T03:06:39.116Z,76.80
2022-08-16T03:06:42.351Z,77.10
2022-08-16T03:07:16.335Z,76.90
2022-08-16T03:07:51.528Z,77.30
2022-08-16T03:08:51.282Z,78.50
2022-08-16T03:09:02.399Z,77.00
2022-08-16T03:09:37.715Z,77.20
2022-08-16T03:10:13.167Z,77.40
2022-08-16T03:10:48.759Z,77.17
2022-08-16T03:11:24.004Z,76.46
2022-08-16T03:11:59.139Z,76.67
2022-08-16T03:12:36.574Z,76.70
2022-08-16T03:13:12.446Z,76.56
2022-08-16T03:13:44.637Z,76.76
2022-08-16T03:14:21.445Z,76.37
2022-08-16T03:14:55.285Z,76.67
2022-08-16T03:15:30.677Z,76.26
2022-08-16T03:16:05.767Z,76.30
2022-08-16T03:16:58.765Z,76.40
2022-08-16T03:17:16.361Z,76.17
2022-08-16T03:17:53.797Z,76.26
2022-08-16T03:18:40.334Z,76.67
2022-08-16T03:19:01.991Z,76.56
2022-08-16T03:19:45.807Z,76.80
2022-08-16T03:20:12.754Z,77.17
2022-08-16T03:20:55.448Z,77.17
2022-08-16T03:21:23.301Z,76.67
2022-08-16T03:21:58.362Z,75.87
2022-08-16T03:22:33.600Z,76.67
2022-08-16T03:23:09.023Z,75.96
2022-08-16T03:23:43.962Z,75.96
2022-08-16T03:24:28.455Z,76.06
2022-08-16T03:24:54.702Z,75.96
2022-08-16T03:25:40.778Z,76.17
2022-08-16T03:26:05.152Z,76.06
2022-08-16T03:26:40.478Z,75.96
2022-08-16T03:27:15.649Z,75.87
2022-08-16T03:27:50.866Z,76.87
2022-08-16T03:28:26.102Z,76.67
2022-08-16T03:29:01.553Z,76.17
2022-08-16T03:29:36.693Z,75.46
2022-08-16T03:30:17.508Z,76.50
2022-08-16T03:30:47.590Z,76.37
2022-08-16T03:31:22.487Z,76.06
2022-08-16T03:31:57.825Z,75.90
2022-08-16T03:32:33.156Z,76.00
2022-08-16T03:33:08.356Z,75.96
2022-08-16T03:33:43.625Z,75.96
2022-08-16T03:34:18.711Z,75.37
2022-08-16T03:34:53.935Z,75.40
2022-08-16T03:35:33.148Z,75.37
2022-08-16T03:36:30.247Z,75.96
2022-08-16T03:36:40.011Z,76.56
2022-08-16T03:37:15.221Z,75.96
2022-08-16T03:38:02.555Z,75.96
2022-08-16T03:38:32.935Z,75.37
2022-08-16T03:39:01.200Z,75.76
2022-08-16T03:39:36.338Z,75.20
2022-08-16T03:40:11.372Z,76.17
2022-08-16T03:40:46.774Z,76.90
2022-08-16T03:41:25.202Z,76.06
2022-08-16T03:41:59.845Z,75.96
2022-08-16T03:42:32.747Z,76.20
2022-08-16T03:43:20.118Z,75.76
2022-08-16T03:43:51.149Z,75.80
2022-08-16T03:44:40.702Z,75.96
2022-08-16T03:44:53.534Z,75.87
2022-08-16T03:45:31.271Z,76.50
2022-08-16T03:46:04.423Z,76.60
2022-08-16T03:46:47.311Z,76.20
2022-08-16T03:47:19.102Z,76.60
2022-08-16T03:47:49.880Z,76.50
2022-08-16T03:48:36.677Z,76.70
2022-08-16T03:49:00.316Z,77.17
2022-08-16T03:49:36.468Z,76.60
2022-08-16T03:50:26.094Z,77.00
2022-08-16T03:51:00.118Z,76.70
2022-08-16T03:51:23.797Z,76.20
2022-08-16T03:51:56.062Z,76.60
2022-08-16T03:52:31.959Z,77.20
2022-08-16T03:53:06.793Z,76.80
2022-08-16T03:53:42.162Z,76.50
2022-08-16T03:54:17.291Z,75.90
2022-08-16T03:54:53.212Z,76.20
2022-08-16T03:55:31.365Z,76.70
2022-08-16T03:56:03.263Z,76.30
2022-08-16T03:56:38.483Z,76.30
2022-08-16T03:57:16.475Z,76.20
2022-08-16T03:57:52.293Z,76.20
2022-08-16T03:58:24.550Z,76.70
2022-08-16T03:58:59.946Z,76.50
2022-08-16T03:59:35.233Z,76.60
2022-08-16T04:00:10.450Z,76.80
2022-08-16T04:00:45.853Z,76.60
2022-08-16T04:01:21.081Z,76.60
2022-08-16T04:01:56.673Z,76.60
2022-08-16T04:02:32.030Z,76.40
2022-08-16T04:03:06.805Z,76.70
2022-08-16T04:03:41.859Z,77.10
2022-08-16T04:04:17.678Z,77.00
2022-08-16T04:04:52.012Z,76.60
2022-08-16T04:05:27.430Z,76.30
2022-08-16T04:06:02.767Z,76.20
2022-08-16T04:06:38.130Z,76.80
2022-08-16T04:07:13.869Z,76.60
2022-08-16T04:07:49.114Z,76.60
2022-08-16T04:08:24.594Z,77.00
2022-08-16T04:08:59.800Z,77.10
2022-08-16T04:09:37.920Z,77.20
2022-08-16T04:10:35.787Z,76.80
2022-08-16T04:10:45.934Z,77.04
2022-08-16T04:11:23.712Z,77.50
2022-08-16T04:11:56.816Z,77.64
2022-08-16T04:12:53.350Z,77.60
2022-08-16T04:13:20.950Z,77.60
2022-08-16T04:13:59.360Z,77.60
2022-08-16T04:14:30.851Z,77.30
2022-08-16T04:15:00.434Z,77.64
2022-08-16T04:15:35.343Z,77.40
2022-08-16T04:16:26.429Z,76.80
2022-08-16T04:16:46.178Z,76.80
2022-08-16T04:17:21.505Z,77.40
2022-08-16T04:17:56.417Z,77.44
2022-08-16T04:18:31.424Z,76.84
2022-08-16T04:19:06.642Z,77.40
2022-08-16T04:19:45.718Z,77.24
2022-08-16T04:20:29.483Z,77.04
2022-08-16T04:20:52.833Z,77.40
2022-08-16T04:21:29.651Z,77.14
2022-08-16T04:22:02.815Z,77.14
2022-08-16T04:22:39.780Z,76.90
2022-08-16T04:23:13.661Z,77.20
2022-08-16T04:23:49.292Z,77.70
2022-08-16T04:24:28.825Z,78.54
2022-08-16T04:25:00.137Z,77.30
2022-08-16T04:25:35.430Z,77.14
2022-08-16T04:26:16.812Z,77.04
2022-08-16T04:26:46.143Z,77.70
2022-08-16T04:27:20.983Z,76.94
2022-08-16T04:27:56.263Z,77.14
2022-08-16T04:28:53.477Z,77.54
2022-08-16T04:29:17.212Z,77.04
2022-08-16T04:29:44.048Z,78.04
2022-08-16T04:30:32.270Z,77.84
2022-08-16T04:30:52.540Z,77.84
2022-08-16T04:31:28.063Z,77.94
2022-08-16T04:32:03.321Z,77.54
2022-08-16T04:32:38.739Z,78.44
2022-08-16T04:33:13.876Z,78.54
2022-08-16T04:33:50.522Z,78.34
2022-08-16T04:34:25.017Z,77.94
2022-08-16T04:35:03.408Z,77.94
2022-08-16T04:35:35.166Z,77.54
2022-08-16T04:36:10.189Z,78.34
2022-08-16T04:36:45.705Z,77.54
2022-08-16T04:37:21.015Z,78.04
2022-08-16T04:37:56.229Z,78.54
2022-08-16T04:38:31.282Z,78.64
2022-08-16T04:39:06.728Z,78.14
2022-08-16T04:39:46.778Z,77.54
2022-08-16T04:40:21.615Z,78.04
2022-08-16T04:40:52.203Z,77.44
2022-08-16T04:41:32.882Z,78.14
2022-08-16T04:42:11.419Z,77.34
2022-08-16T04:42:38.400Z,77.94
2022-08-16T04:43:13.394Z,77.54
2022-08-16T04:43:48.819Z,77.64
2022-08-16T04:44:52.745Z,77.64
2022-08-16T04:45:02.011Z,78.14
2022-08-16T04:45:36.084Z,78.74
2022-08-16T04:46:33.192Z,77.54
2022-08-16T04:47:01.325Z,77.54
2022-08-16T04:47:21.659Z,77.44
2022-08-16T04:47:55.961Z,78.24
2022-08-16T04:48:32.823Z,77.64
2022-08-16T04:49:06.291Z,77.54
2022-08-16T04:49:45.884Z,77.54
2022-08-16T04:50:16.546Z,77.74
2022-08-16T04:50:51.752Z,77.64
2022-08-16T04:51:27.203Z,77.64
2022-08-16T04:52:02.308Z,77.48
2022-08-16T04:52:37.317Z,77.74
2022-08-16T04:53:12.525Z,77.78
2022-08-16T04:53:47.570Z,78.48
2022-08-16T04:54:22.775Z,78.14
2022-08-16T04:54:58.193Z,78.78
2022-08-16T04:55:38.235Z,79.08
2022-08-16T04:56:11.592Z,79.08
2022-08-16T04:56:46.439Z,79.04
2022-08-16T04:57:19.782Z,78.84
2022-08-16T04:57:54.816Z,78.38
2022-08-16T04:58:44.599Z,78.34
2022-08-16T04:59:05.381Z,78.14
2022-08-16T04:59:40.729Z,79.04
2022-08-16T05:00:32.330Z,79.04
2022-08-16T05:00:51.059Z,78.74
2022-08-16T05:01:57.664Z,78.04
2022-08-16T05:02:01.498Z,78.44
2022-08-16T05:02:41.460Z,78.84
2022-08-16T05:03:11.972Z,78.84
2022-08-16T05:04:01.165Z,78.74
2022-08-16T05:04:22.508Z,78.24
2022-08-16T05:04:57.864Z,78.08
2022-08-16T05:05:36.731Z,77.98
2022-08-16T05:06:09.367Z,78.34
2022-08-16T05:06:45.881Z,78.74
2022-08-16T05:07:20.554Z,78.24
2022-08-16T05:07:59.493Z,78.44
2022-08-16T05:08:31.017Z,78.88
2022-08-16T05:09:04.836Z,78.84
2022-08-16T05:09:39.853Z,79.04
2022-08-16T05:10:19.833Z,78.14
2022-08-16T05:10:49.873Z,78.54
2022-08-16T05:11:25.033Z,78.84
2022-08-16T05:12:00.255Z,78.84
2022-08-16T05:12:35.668Z,78.34
2022-08-16T05:13:15.540Z,78.24
2022-08-16T05:13:46.487Z,77.64
2022-08-16T05:14:46.167Z,78.44
2022-08-16T05:15:02.414Z,77.94
2022-08-16T05:15:32.288Z,77.64
2022-08-16T05:16:07.648Z,78.78
2022-08-16T05:16:42.760Z,77.67
2022-08-16T05:17:18.076Z,78.24
2022-08-16T05:17:58.550Z,78.88
2022-08-16T05:18:29.134Z,79.04
2022-08-16T05:19:04.531Z,78.88
2022-08-16T05:19:39.770Z,78.88
2022-08-16T05:20:39.130Z,78.88
2022-08-16T05:21:09.673Z,78.84
2022-08-16T05:21:26.924Z,78.48
2022-08-16T05:22:01.073Z,78.68
2022-08-16T05:22:36.305Z,78.98
2022-08-16T05:23:11.503Z,78.64
2022-08-16T05:23:51.714Z,78.88
2022-08-16T05:24:24.846Z,78.68
2022-08-16T05:24:57.226Z,78.68
2022-08-16T05:25:40.864Z,78.98
2022-08-16T05:26:19.503Z,78.64
2022-08-16T05:26:51.621Z,78.64
2022-08-16T05:27:18.393Z,78.58
2022-08-16T05:27:53.915Z,78.68
2022-08-16T05:28:37.402Z,78.74
2022-08-16T05:29:04.741Z,78.88
2022-08-16T05:29:57.557Z,78.54
2022-08-16T05:30:34.435Z,78.78
2022-08-16T05:30:50.676Z,78.54
2022-08-16T05:31:29.492Z,78.94
2022-08-16T05:32:01.042Z,79.04
2022-08-16T05:32:45.895Z,78.74
2022-08-16T05:33:16.304Z,78.44
2022-08-16T05:33:46.997Z,78.74
2022-08-16T05:34:22.543Z,78.84
2022-08-16T05:34:57.345Z,78.24
2022-08-16T05:35:32.676Z,78.34
2022-08-16T05:36:08.703Z,78.64
2022-08-16T05:36:44.027Z,79.14
2022-08-16T05:37:18.325Z,78.14
2022-08-16T05:37:53.834Z,78.91
2022-08-16T05:38:32.717Z,78.20
2022-08-16T05:39:04.103Z,77.94
2022-08-16T05:39:40.936Z,77.70
2022-08-16T05:40:14.259Z,77.54
2022-08-16T05:40:59.573Z,77.64
2022-08-16T05:41:24.869Z,77.50
2022-08-16T05:42:00.116Z,77.30
2022-08-16T05:42:36.128Z,77.60
2022-08-16T05:43:12.107Z,78.50
2022-08-16T05:43:47.781Z,78.00
2022-08-16T05:44:23.776Z,77.30
2022-08-16T05:44:57.676Z,76.46
2022-08-16T05:45:33.102Z,77.47
2022-08-16T05:46:29.028Z,77.67
2022-08-16T05:46:43.565Z,78.17
2022-08-16T05:47:19.069Z,77.56
2022-08-16T05:47:59.759Z,76.76
2022-08-16T05:48:29.717Z,77.06
2022-08-16T05:49:08.988Z,76.87
2022-08-16T05:49:40.296Z,77.63
2022-08-16T05:50:18.995Z,75.93
2022-08-16T05:50:53.183Z,77.23
2022-08-16T05:51:38.690Z,77.23
2022-08-16T05:52:01.262Z,76.73
2022-08-16T05:52:36.682Z,76.63
2022-08-16T05:53:12.131Z,76.67
2022-08-16T05:53:47.440Z,76.83
2022-08-16T05:54:25.622Z,76.53
2022-08-16T05:55:01.211Z,76.23
2022-08-16T05:55:32.799Z,76.43
2022-08-16T05:56:08.032Z,75.99
2022-08-16T05:56:43.447Z,76.09
2022-08-16T05:57:18.582Z,76.99
2022-08-16T05:57:53.779Z,75.59
2022-08-16T05:58:33.169Z,75.79
2022-08-16T05:59:04.234Z,76.09
2022-08-16T05:59:39.673Z,74.79
2022-08-16T06:00:22.443Z,75.89
2022-08-16T06:00:49.905Z,76.59
2022-08-16T06:01:25.385Z,75.29
2022-08-16T06:02:00.657Z,75.49
2022-08-16T06:02:35.770Z,74.49
2022-08-16T06:03:13.183Z,75.09
2022-08-16T06:03:46.416Z,75.49
2022-08-16T06:04:35.887Z,74.99
2022-08-16T06:04:56.953Z,75.29
2022-08-16T06:05:32.376Z,75.29
2022-08-16T06:06:08.568Z,75.69
2022-08-16T06:06:43.490Z,76.19
2022-08-16T06:07:26.088Z,76.19
2022-08-16T06:07:58.497Z,76.59
2022-08-16T06:08:31.666Z,76.29
2022-08-16T06:09:03.756Z,76.89
2022-08-16T06:09:43.666Z,75.19
2022-08-16T06:10:14.589Z,76.09
2022-08-16T06:11:09.779Z,75.93
2022-08-16T06:11:25.553Z,75.99
2022-08-16T06:12:00.382Z,75.19
2022-08-16T06:12:35.708Z,75.83
2022-08-16T06:13:11.004Z,75.69
2022-08-16T06:13:46.543Z,75.89
2022-08-16T06:14:21.547Z,74.93
2022-08-16T06:14:56.769Z,74.93
2022-08-16T06:15:32.455Z,75.19
2022-08-16T06:16:07.662Z,75.89
2022-08-16T06:16:43.014Z,76.49
2022-08-16T06:17:18.020Z,75.73
2022-08-16T06:17:53.442Z,75.83
2022-08-16T06:18:28.682Z,74.99
2022-08-16T06:19:04.823Z,76.23
2022-08-16T06:19:41.539Z,75.69
2022-08-16T06:20:14.219Z,75.99
2022-08-16T06:20:55.143Z,76.33
2022-08-16T06:21:24.649Z,75.13
2022-08-16T06:21:59.882Z,75.33
2022-08-16T06:22:39.176Z,76.49
2022-08-16T06:23:17.284Z,75.89
2022-08-16T06:23:45.771Z,76.13
2022-08-16T06:24:53.954Z,76.13
2022-08-16T06:24:56.420Z,76.03
2022-08-16T06:25:36.158Z,75.69
2022-08-16T06:26:07.580Z,75.02
2022-08-16T06:26:45.965Z,75.93
2022-08-16T06:27:17.147Z,76.69
2022-08-16T06:27:57.340Z,75.29
2022-08-16T06:28:35.629Z,76.09
2022-08-16T06:29:02.782Z,75.49
2022-08-16T06:29:38.012Z,75.29
2022-08-16T06:30:12.931Z,76.09
2022-08-16T06:30:48.047Z,76.69
2022-08-16T06:31:24.874Z,75.89
2022-08-16T06:31:58.796Z,75.09
2022-08-16T06:32:38.340Z,75.49
2022-08-16T06:33:09.156Z,75.29
2022-08-16T06:33:44.660Z,74.79
2022-08-16T06:34:54.235Z,74.99
2022-08-16T06:35:01.935Z,75.76
2022-08-16T06:35:40.459Z,75.85
2022-08-16T06:36:05.803Z,75.56
2022-08-16T06:36:40.895Z,74.66
2022-08-16T06:37:16.220Z,73.96
2022-08-16T06:37:52.560Z,75.26
2022-08-16T06:38:32.595Z,74.66
2022-08-16T06:39:01.896Z,74.96
2022-08-16T06:39:46.637Z,74.96
2022-08-16T06:40:12.473Z,74.62
2022-08-16T06:40:49.268Z,74.55
2022-08-16T06:41:22.545Z,74.62
2022-08-16T06:41:57.660Z,74.12
2022-08-16T06:42:47.164Z,75.22
2022-08-16T06:43:08.304Z,73.28
2022-08-16T06:43:43.440Z,73.79
2022-08-16T06:44:20.785Z,73.99
2022-08-16T06:44:54.088Z,73.49
2022-08-16T06:45:29.445Z,73.79
2022-08-16T06:46:04.344Z,73.19
2022-08-16T06:46:39.748Z,74.25
2022-08-16T06:47:17.053Z,74.35
2022-08-16T06:47:54.468Z,73.65
2022-08-16T06:48:32.617Z,74.11
2022-08-16T06:49:01.632Z,72.42
2022-08-16T06:49:36.372Z,72.81
2022-08-16T06:50:11.874Z,73.52
2022-08-16T06:50:46.992Z,73.11
2022-08-16T06:51:22.224Z,72.62
2022-08-16T06:52:03.129Z,72.58
2022-08-16T06:52:57.672Z,71.89
2022-08-16T06:53:09.067Z,71.19
2022-08-16T06:53:43.516Z,71.89
2022-08-16T06:54:18.754Z,71.98
2022-08-16T06:54:53.865Z,70.89
2022-08-16T06:55:34.556Z,71.89
2022-08-16T06:56:04.538Z,71.65
2022-08-16T06:56:39.772Z,71.55
2022-08-16T06:57:16.873Z,72.25
2022-08-16T06:57:50.420Z,72.65
2022-08-16T06:58:31.406Z,72.45
2022-08-16T06:59:00.644Z,71.81
2022-08-16T06:59:48.512Z,70.92
2022-08-16T07:00:21.972Z,69.82
2022-08-16T07:00:46.260Z,71.02
2022-08-16T07:01:42.826Z,71.28
2022-08-16T07:01:58.253Z,69.89
2022-08-16T07:02:33.063Z,68.99
2022-08-16T07:03:07.246Z,69.99
2022-08-16T07:03:55.140Z,69.79
2022-08-16T07:04:32.111Z,71.45
2022-08-16T07:04:52.797Z,69.66
2022-08-16T07:05:41.841Z,69.56
2022-08-16T07:06:02.962Z,69.36
2022-08-16T07:06:38.183Z,69.32
2022-08-16T07:07:14.519Z,69.56
2022-08-16T07:07:50.980Z,69.06
2022-08-16T07:08:23.799Z,69.62
2022-08-16T07:08:58.948Z,68.63
2022-08-16T07:09:34.451Z,69.73
2022-08-16T07:10:09.611Z,68.90
2022-08-16T07:10:44.918Z,69.20
2022-08-16T07:11:20.223Z,68.20
2022-08-16T07:11:55.575Z,68.10
2022-08-16T07:12:36.649Z,67.47
2022-08-16T07:13:11.663Z,67.07
2022-08-16T07:14:00.372Z,67.87
2022-08-16T07:14:24.332Z,67.57
2022-08-16T07:14:51.852Z,67.37
2022-08-16T07:15:27.068Z,69.62
2022-08-16T07:16:02.502Z,67.37
2022-08-16T07:16:37.343Z,66.94
2022-08-16T07:17:12.824Z,66.25
2022-08-16T07:17:47.806Z,65.85
2022-08-16T07:18:24.491Z,65.65
2022-08-16T07:19:01.651Z,65.65
2022-08-16T07:20:29.261Z,66.61
2022-08-16T07:20:35.735Z,67.80
2022-08-16T07:20:47.341Z,66.31
2022-08-16T07:21:19.224Z,66.11
2022-08-16T07:21:59.684Z,66.91
2022-08-16T07:22:37.156Z,67.21
2022-08-16T07:23:13.234Z,66.51
2022-08-16T07:23:41.055Z,66.02
2022-08-16T07:24:30.262Z,66.11
2022-08-16T07:24:51.721Z,66.11
2022-08-16T07:25:27.285Z,65.72
2022-08-16T07:26:02.432Z,66.61
2022-08-16T07:26:37.651Z,65.62
2022-08-16T07:27:12.959Z,66.02
2022-08-16T07:27:48.388Z,66.31
2022-08-16T07:28:24.368Z,66.02
2022-08-16T07:28:58.620Z,66.38
2022-08-16T07:29:34.032Z,65.78
2022-08-16T07:30:38.043Z,66.58
2022-08-16T07:30:46.890Z,65.89
2022-08-16T07:31:20.418Z,64.30
2022-08-16T07:31:55.744Z,65.78
2022-08-16T07:32:31.606Z,65.36
2022-08-16T07:33:07.083Z,65.46
2022-08-16T07:33:52.356Z,64.96
2022-08-16T07:34:16.818Z,65.66